createdAt,value
2023-05-19T00:02:09.508Z,3.40
2023-05-19T00:04:37.795Z,3.60
2023-05-19T00:07:05.663Z,3.10
2023-05-19T00:09:32.788Z,3.00
2023-05-19T00:11:59.812Z,4.00
2023-05-19T00:14:26.734Z,3.40
2023-05-19T00:16:56.013Z,3.30
2023-05-19T00:19:24.597Z,3.20
2023-05-19T00:21:51.636Z,3.50
2023-05-19T00:24:18.266Z,3.50
2023-05-19T00:26:44.850Z,3.30
2023-05-19T00:29:11.634Z,3.20
2023-05-19T00:31:38.470Z,3.20
2023-05-19T00:34:05.206Z,3.40
2023-05-19T00:36:31.840Z,2.80
2023-05-19T00:38:58.468Z,3.20
2023-05-19T00:41:26.386Z,3.20
2023-05-19T00:43:53.007Z,3.00
2023-05-19T00:46:19.980Z,3.20
2023-05-19T00:48:47.626Z,3.60
2023-05-19T00:51:16.835Z,3.30
2023-05-19T00:53:49.159Z,3.50
2023-05-19T00:56:16.963Z,3.70
2023-05-19T00:58:45.244Z,3.00
2023-05-19T01:01:12.304Z,3.50
2023-05-19T01:03:40.853Z,3.40
2023-05-19T01:06:08.105Z,3.20
2023-05-19T01:08:37.665Z,2.70
2023-05-19T01:11:08.536Z,3.00
2023-05-19T01:13:36.596Z,3.20
2023-05-19T01:16:32.274Z,3.10
2023-05-19T01:19:11.074Z,3.20
2023-05-19T01:22:33.647Z,2.90
2023-05-19T01:25:17.934Z,2.90
2023-05-19T01:28:16.325Z,3.10
2023-05-19T01:30:45.978Z,3.20
2023-05-19T01:33:15.318Z,3.30
2023-05-19T01:35:43.891Z,2.50
2023-05-19T01:38:12.557Z,2.50
2023-05-19T01:40:42.076Z,3.30
2023-05-19T01:43:12.884Z,3.20
2023-05-19T01:45:41.037Z,3.20
2023-05-19T01:48:10.786Z,2.80
2023-05-19T01:50:40.307Z,3.60
2023-05-19T01:53:07.235Z,2.40
2023-05-19T01:55:48.008Z,3.10
2023-05-19T01:58:23.524Z,2.60
2023-05-19T02:01:16.868Z,3.10
2023-05-19T02:03:59.528Z,2.70
2023-05-19T02:07:23.187Z,3.50
2023-05-19T02:10:19.655Z,3.30
2023-05-19T02:12:48.700Z,3.00
2023-05-19T02:15:25.091Z,2.80
2023-05-19T02:17:54.453Z,3.10
2023-05-19T02:20:24.543Z,3.20
2023-05-19T02:22:51.264Z,2.90
2023-05-19T02:25:18.509Z,2.90
2023-05-19T02:27:45.835Z,3.30
2023-05-19T02:30:12.746Z,2.80
2023-05-19T02:32:40.189Z,3.10
2023-05-19T02:35:07.325Z,3.00
2023-05-19T02:37:35.392Z,3.50
2023-05-19T02:40:01.976Z,2.70
2023-05-19T02:42:29.324Z,3.20
2023-05-19T02:44:55.991Z,3.10
2023-05-19T02:47:22.722Z,3.70
2023-05-19T02:49:49.379Z,3.10
2023-05-19T02:52:16.074Z,3.00
2023-05-19T02:54:42.921Z,3.70
2023-05-19T02:57:09.920Z,3.30
2023-05-19T02:59:36.595Z,3.50
2023-05-19T03:02:03.703Z,3.30
2023-05-19T03:04:30.607Z,3.60
2023-05-19T03:06:57.764Z,3.10
2023-05-19T03:09:24.561Z,3.30
2023-05-19T03:11:51.301Z,3.50
2023-05-19T03:14:18.662Z,3.20
2023-05-19T03:16:45.754Z,3.90
2023-05-19T03:19:12.813Z,3.60
2023-05-19T03:21:39.619Z,3.50
2023-05-19T03:24:07.214Z,3.90
2023-05-19T03:26:34.274Z,3.30
2023-05-19T03:29:01.154Z,4.10
2023-05-19T03:31:30.574Z,3.30
2023-05-19T03:33:57.922Z,2.90
2023-05-19T03:36:24.945Z,3.70
2023-05-19T03:38:51.648Z,2.80
2023-05-19T03:41:18.381Z,3.40
2023-05-19T03:43:45.088Z,3.60
2023-05-19T03:46:11.773Z,3.40
2023-05-19T03:49:12.031Z,3.40
2023-05-19T03:52:03.311Z,3.50
2023-05-19T03:54:51.652Z,3.40
2023-05-19T03:57:19.631Z,3.40
2023-05-19T03:59:47.317Z,3.70
2023-05-19T04:02:13.975Z,3.90
2023-05-19T04:04:40.616Z,4.20
2023-05-19T04:07:07.408Z,3.60
2023-05-19T04:09:35.635Z,3.50
2023-05-19T04:12:05.463Z,3.70
2023-05-19T04:14:32.068Z,4.10
2023-05-19T04:16:58.774Z,3.60
2023-05-19T04:19:27.245Z,3.60
2023-05-19T04:21:55.183Z,3.90
2023-05-19T04:24:22.014Z,3.20
2023-05-19T04:26:48.953Z,3.90
2023-05-19T04:29:18.446Z,3.80
2023-05-19T04:31:45.652Z,3.80
2023-05-19T04:34:12.405Z,3.00
2023-05-19T04:36:39.177Z,3.10
2023-05-19T04:39:11.565Z,3.30
2023-05-19T04:41:40.420Z,3.50
2023-05-19T04:44:09.347Z,4.10
2023-05-19T04:46:36.878Z,4.30
2023-05-19T04:49:04.507Z,4.00
2023-05-19T04:51:31.333Z,3.70
2023-05-19T04:53:59.666Z,4.00
2023-05-19T04:56:27.387Z,3.30
2023-05-19T04:58:54.474Z,3.00
2023-05-19T05:01:26.038Z,3.20
2023-05-19T05:03:59.126Z,3.30
2023-05-19T05:06:26.675Z,3.90
2023-05-19T05:08:53.440Z,3.60
2023-05-19T05:11:20.757Z,3.00
2023-05-19T05:13:48.056Z,3.70
2023-05-19T05:16:15.908Z,4.30
2023-05-19T05:18:44.934Z,3.60
2023-05-19T05:21:12.851Z,3.60
2023-05-19T05:23:40.642Z,3.80
2023-05-19T05:26:17.580Z,3.50
2023-05-19T05:28:44.597Z,3.00
2023-05-19T05:31:11.590Z,3.30
2023-05-19T05:33:39.031Z,3.90
2023-05-19T05:36:06.209Z,3.60
2023-05-19T05:38:32.896Z,3.70
2023-05-19T05:41:00.912Z,4.00
2023-05-19T05:43:27.822Z,3.90
2023-05-19T05:45:57.528Z,4.20
2023-05-19T05:48:24.861Z,3.90
2023-05-19T05:50:52.683Z,3.90
2023-05-19T05:53:22.248Z,3.60
2023-05-19T05:55:51.727Z,3.20
2023-05-19T05:58:18.742Z,3.20
2023-05-19T06:00:48.563Z,3.30
2023-05-19T06:03:16.876Z,3.70
2023-05-19T06:05:44.032Z,2.90
2023-05-19T06:08:10.890Z,3.70
2023-05-19T06:10:39.115Z,4.50
2023-05-19T06:13:07.265Z,3.20
2023-05-19T06:15:36.384Z,3.10
2023-05-19T06:18:09.006Z,3.50
2023-05-19T06:20:35.979Z,3.20
2023-05-19T06:23:02.923Z,3.60
2023-05-19T06:25:30.537Z,3.50
2023-05-19T06:27:57.579Z,5.00
2023-05-19T06:30:24.596Z,3.20
2023-05-19T06:33:09.916Z,3.10
2023-05-19T06:35:38.354Z,3.70
2023-05-19T06:38:05.150Z,3.20
2023-05-19T06:40:32.664Z,3.20
2023-05-19T06:42:59.602Z,3.10
2023-05-19T06:45:49.379Z,3.10
2023-05-19T06:48:16.222Z,3.20
2023-05-19T06:50:43.067Z,3.60
2023-05-19T06:53:09.789Z,3.60
2023-05-19T06:55:44.095Z,3.60
2023-05-19T06:58:24.247Z,3.20
2023-05-19T07:00:51.084Z,2.00
2023-05-19T07:03:17.891Z,3.00
2023-05-19T07:05:44.788Z,2.70
2023-05-19T07:08:11.662Z,3.10
2023-05-19T07:10:39.515Z,3.00
2023-05-19T07:13:08.672Z,3.00
2023-05-19T07:15:35.887Z,2.80
2023-05-19T07:18:03.418Z,3.90
2023-05-19T07:20:30.266Z,3.10
2023-05-19T07:22:57.269Z,2.80
2023-05-19T07:25:26.170Z,3.10
2023-05-19T07:27:52.979Z,3.30
2023-05-19T07:30:19.681Z,3.40
2023-05-19T07:32:46.384Z,2.70
2023-05-19T07:35:13.287Z,3.10
2023-05-19T07:37:40.055Z,3.10
2023-05-19T07:40:08.205Z,3.40
2023-05-19T07:42:35.143Z,3.20
2023-05-19T07:45:03.446Z,3.50
2023-05-19T07:47:31.184Z,3.00
2023-05-19T07:49:57.904Z,3.70
2023-05-19T07:52:24.573Z,3.30
2023-05-19T07:54:51.239Z,2.80
2023-05-19T07:57:19.000Z,2.60
2023-05-19T07:59:45.643Z,3.00
2023-05-19T08:02:12.321Z,2.70
2023-05-19T08:04:39.101Z,3.10
2023-05-19T08:07:05.884Z,2.70
2023-05-19T08:09:32.583Z,2.70
2023-05-19T08:11:59.281Z,3.00
2023-05-19T08:14:26.971Z,3.40
2023-05-19T08:16:53.672Z,2.40
2023-05-19T08:19:20.539Z,6.70
2023-05-19T08:21:48.333Z,4.20
2023-05-19T08:24:15.298Z,3.60
2023-05-19T08:26:44.062Z,4.60
2023-05-19T08:29:10.719Z,3.40
2023-05-19T08:31:37.597Z,4.20
2023-05-19T08:34:04.380Z,3.00
2023-05-19T08:36:31.052Z,4.00
2023-05-19T08:38:57.672Z,3.90
2023-05-19T08:41:24.326Z,4.30
2023-05-19T08:43:51.092Z,4.00
2023-05-19T08:46:18.439Z,3.30
2023-05-19T08:48:48.183Z,4.50
2023-05-19T08:51:28.507Z,4.80
2023-05-19T08:54:00.610Z,4.60
2023-05-19T08:56:28.082Z,4.00
2023-05-19T08:58:56.716Z,4.20
2023-05-19T09:01:23.908Z,3.60
2023-05-19T09:03:52.118Z,3.90
2023-05-19T09:06:18.723Z,4.40
2023-05-19T09:08:47.129Z,4.00
2023-05-19T09:11:14.470Z,4.10
2023-05-19T09:13:41.155Z,4.10
2023-05-19T09:16:08.370Z,3.80
2023-05-19T09:18:40.753Z,4.10
2023-05-19T09:21:08.006Z,3.90
2023-05-19T09:23:34.790Z,3.80
2023-05-19T09:26:08.806Z,3.80
2023-05-19T09:28:37.835Z,4.10
2023-05-19T09:31:09.968Z,4.30
2023-05-19T09:33:45.584Z,5.60
2023-05-19T09:36:13.944Z,4.50
2023-05-19T09:38:41.446Z,4.50
2023-05-19T09:41:09.617Z,3.30
2023-05-19T09:43:36.790Z,3.40
2023-05-19T09:46:08.042Z,4.20
2023-05-19T09:48:36.687Z,4.10
2023-05-19T09:51:06.479Z,4.70
2023-05-19T09:53:34.904Z,5.40
2023-05-19T09:56:03.549Z,4.50
2023-05-19T09:58:35.539Z,4.70
2023-05-19T10:01:04.282Z,4.20
2023-05-19T10:03:33.138Z,4.20
2023-05-19T10:06:02.342Z,4.80
2023-05-19T10:08:30.803Z,5.00
2023-05-19T10:10:58.393Z,4.20
2023-05-19T10:13:26.524Z,5.40
2023-05-19T10:15:59.017Z,3.80
2023-05-19T10:18:30.282Z,4.00
2023-05-19T10:20:58.284Z,4.70
2023-05-19T10:23:26.658Z,4.70
2023-05-19T10:25:58.409Z,4.60
2023-05-19T10:28:33.705Z,4.30
2023-05-19T10:31:02.847Z,4.80
2023-05-19T10:33:57.150Z,5.00
2023-05-19T10:36:46.770Z,5.10
2023-05-19T10:39:29.457Z,4.70
2023-05-19T10:42:35.014Z,4.90
2023-05-19T10:45:20.258Z,5.10
2023-05-19T10:47:47.116Z,4.80
2023-05-19T10:50:13.989Z,5.10
2023-05-19T10:52:40.929Z,4.90
2023-05-19T10:55:10.228Z,4.90
2023-05-19T10:57:37.062Z,4.90
2023-05-19T11:00:29.143Z,6.00
2023-05-19T11:03:18.695Z,5.10
2023-05-19T11:05:46.485Z,5.40
2023-05-19T11:08:13.289Z,4.90
2023-05-19T11:10:44.762Z,4.60
2023-05-19T11:13:22.738Z,4.80
2023-05-19T11:15:50.078Z,3.50
2023-05-19T11:18:17.090Z,4.80
2023-05-19T11:20:44.648Z,5.60
2023-05-19T11:23:19.629Z,5.70
2023-05-19T11:25:53.830Z,5.00
2023-05-19T11:28:28.227Z,4.60
2023-05-19T11:30:57.998Z,6.00
2023-05-19T11:33:29.142Z,5.20
2023-05-19T11:36:00.274Z,4.50
2023-05-19T11:38:29.958Z,5.00
2023-05-19T11:40:57.072Z,5.00
2023-05-19T11:43:25.519Z,6.20
2023-05-19T11:45:54.556Z,5.60
2023-05-19T11:48:22.520Z,5.60
2023-05-19T11:50:50.316Z,6.20
2023-05-19T11:53:19.638Z,5.30
2023-05-19T11:55:47.694Z,4.70
2023-05-19T11:58:14.839Z,5.00
2023-05-19T12:00:47.370Z,6.80
2023-05-19T12:03:14.432Z,6.90
2023-05-19T12:05:47.378Z,5.20
2023-05-19T12:08:14.825Z,6.70
2023-05-19T12:10:41.864Z,4.70
2023-05-19T12:13:11.307Z,6.00
2023-05-19T12:15:38.926Z,6.80
2023-05-19T12:18:06.660Z,5.20
2023-05-19T12:20:36.300Z,6.00
2023-05-19T12:23:03.760Z,5.80
2023-05-19T12:25:32.820Z,5.70
2023-05-19T12:28:05.039Z,6.20
2023-05-19T12:30:33.908Z,5.90
2023-05-19T12:33:02.218Z,5.20
2023-05-19T12:35:34.096Z,5.20
2023-05-19T12:38:06.697Z,6.00
2023-05-19T12:40:35.910Z,6.00
2023-05-19T12:43:04.077Z,6.00
2023-05-19T12:45:39.587Z,4.50
2023-05-19T12:48:12.217Z,5.20
2023-05-19T12:50:39.128Z,5.50
2023-05-19T12:53:10.809Z,5.90
2023-05-19T12:55:45.541Z,6.40
2023-05-19T12:58:13.323Z,6.10
2023-05-19T13:00:42.664Z,6.30
2023-05-19T13:03:19.639Z,5.90
2023-05-19T13:05:49.268Z,6.40
2023-05-19T13:08:23.486Z,6.10
2023-05-19T13:10:50.275Z,5.90
2023-05-19T13:13:17.109Z,6.40
2023-05-19T13:15:48.790Z,4.70
2023-05-19T13:18:16.163Z,5.80
2023-05-19T13:20:44.806Z,6.20
2023-05-19T13:23:13.381Z,6.10
2023-05-19T13:25:42.175Z,4.80
2023-05-19T13:28:09.735Z,6.60
2023-05-19T13:30:39.259Z,5.40
2023-05-19T13:33:06.753Z,6.00
2023-05-19T13:35:37.204Z,4.00
2023-05-19T13:38:06.841Z,5.00
2023-05-19T13:40:35.142Z,5.30
2023-05-19T13:43:03.639Z,6.90
2023-05-19T13:45:30.758Z,4.70
2023-05-19T13:47:57.524Z,8.50
2023-05-19T13:50:24.261Z,6.10
2023-05-19T13:52:50.869Z,6.70
2023-05-19T13:55:17.742Z,7.40
2023-05-19T13:57:44.889Z,5.90
2023-05-19T14:00:12.124Z,5.80
2023-05-19T14:02:39.828Z,5.80
2023-05-19T14:05:07.559Z,6.50
2023-05-19T14:07:37.330Z,6.30
2023-05-19T14:10:06.742Z,6.30
2023-05-19T14:12:49.493Z,6.80
2023-05-19T14:15:22.302Z,6.00
2023-05-19T14:17:49.065Z,5.40
2023-05-19T14:20:16.015Z,5.90
2023-05-19T14:22:42.715Z,7.00
2023-05-19T14:25:09.630Z,6.40
2023-05-19T14:27:36.333Z,6.30
2023-05-19T14:30:03.435Z,5.80
2023-05-19T14:32:30.709Z,6.70
2023-05-19T14:34:57.512Z,8.00
2023-05-19T14:37:26.516Z,5.70
2023-05-19T14:39:53.109Z,6.40
2023-05-19T14:42:19.753Z,5.40
2023-05-19T14:44:46.378Z,6.40
2023-05-19T14:47:13.108Z,4.50
2023-05-19T14:49:39.824Z,6.20
2023-05-19T14:52:06.858Z,5.90
2023-05-19T14:54:33.992Z,5.70
2023-05-19T14:57:01.626Z,8.00
2023-05-19T14:59:29.667Z,7.00
2023-05-19T15:01:56.353Z,5.90
2023-05-19T15:04:23.301Z,5.80
2023-05-19T15:06:58.223Z,6.10
2023-05-19T15:09:36.268Z,6.20
2023-05-19T15:12:03.105Z,5.90
2023-05-19T15:14:31.077Z,5.90
2023-05-19T15:16:58.574Z,5.10
2023-05-19T15:19:26.485Z,5.60
2023-05-19T15:21:53.567Z,5.50
2023-05-19T15:24:20.367Z,5.60
2023-05-19T15:26:47.779Z,5.30
2023-05-19T15:29:14.478Z,6.30
2023-05-19T15:31:41.765Z,6.20
2023-05-19T15:34:08.806Z,7.10
2023-05-19T15:36:35.574Z,6.20
2023-05-19T15:39:03.837Z,6.20
2023-05-19T15:41:30.556Z,6.00
2023-05-19T15:43:57.626Z,6.70
2023-05-19T15:46:24.286Z,6.50
2023-05-19T15:48:51.077Z,6.90
2023-05-19T15:51:17.920Z,7.10
2023-05-19T15:53:44.671Z,5.40
2023-05-19T15:56:11.415Z,5.30
2023-05-19T15:58:38.058Z,5.70
2023-05-19T16:01:05.424Z,4.60
2023-05-19T16:03:32.406Z,5.90
2023-05-19T16:05:59.697Z,5.30
2023-05-19T16:08:27.106Z,4.80
2023-05-19T16:10:55.065Z,5.40
2023-05-19T16:13:22.256Z,4.50
2023-05-19T16:15:49.099Z,5.70
2023-05-19T16:18:16.433Z,6.40
2023-05-19T16:20:44.182Z,5.90
2023-05-19T16:23:10.918Z,6.10
2023-05-19T16:25:37.581Z,4.70
2023-05-19T16:28:04.733Z,5.10
2023-05-19T16:30:32.349Z,5.40
2023-05-19T16:32:59.513Z,5.60
2023-05-19T16:35:27.951Z,6.00
2023-05-19T16:37:54.838Z,6.00
2023-05-19T16:40:21.459Z,5.20
2023-05-19T16:42:48.122Z,5.10
2023-05-19T16:45:17.547Z,5.20
2023-05-19T16:47:44.937Z,5.70
2023-05-19T16:50:12.930Z,5.90
2023-05-19T16:52:39.635Z,6.80
2023-05-19T16:55:07.202Z,5.50
2023-05-19T16:57:33.877Z,5.50
2023-05-19T17:00:00.572Z,5.90
2023-05-19T17:02:28.352Z,5.90
2023-05-19T17:04:55.505Z,5.40
2023-05-19T17:07:22.125Z,5.10
2023-05-19T17:09:49.009Z,5.30
2023-05-19T17:12:15.990Z,4.90
2023-05-19T17:14:43.636Z,5.50
2023-05-19T17:17:10.422Z,5.10
2023-05-19T17:19:37.266Z,4.90
2023-05-19T17:22:04.153Z,5.40
2023-05-19T17:24:33.548Z,5.40
2023-05-19T17:27:00.916Z,4.90
2023-05-19T17:29:30.210Z,5.50
2023-05-19T17:31:57.149Z,6.30
2023-05-19T17:34:23.946Z,7.20
2023-05-19T17:36:50.586Z,4.90
2023-05-19T17:39:17.329Z,4.80
2023-05-19T17:41:44.074Z,4.90
2023-05-19T17:44:11.278Z,5.10
2023-05-19T17:46:39.359Z,5.00
2023-05-19T17:49:06.750Z,4.70
2023-05-19T17:51:33.584Z,4.60
2023-05-19T17:54:00.575Z,4.90
2023-05-19T17:56:29.192Z,4.60
2023-05-19T17:58:56.187Z,4.50
2023-05-19T18:01:26.024Z,4.90
2023-05-19T18:03:53.237Z,4.70
2023-05-19T18:06:20.921Z,4.70
2023-05-19T18:08:50.789Z,4.90
2023-05-19T18:11:18.860Z,4.60
2023-05-19T18:13:45.608Z,4.40
2023-05-19T18:16:12.889Z,4.50
2023-05-19T18:18:43.522Z,4.90
2023-05-19T18:21:17.638Z,4.90
2023-05-19T18:23:45.429Z,4.90
2023-05-19T18:26:13.072Z,4.70
2023-05-19T18:28:41.345Z,6.20
2023-05-19T18:31:15.719Z,4.70
2023-05-19T18:33:43.340Z,4.80
2023-05-19T18:36:10.116Z,4.60
2023-05-19T18:38:36.841Z,4.50
2023-05-19T18:41:03.546Z,4.90
2023-05-19T18:43:32.543Z,4.60
2023-05-19T18:45:59.252Z,4.60
2023-05-19T18:48:25.899Z,4.90
2023-05-19T18:50:52.485Z,4.60
2023-05-19T18:53:21.211Z,5.10
2023-05-19T18:55:47.913Z,5.10
2023-05-19T18:58:14.530Z,4.80
2023-05-19T19:00:41.136Z,4.80
2023-05-19T19:03:10.307Z,5.00
2023-05-19T19:05:37.332Z,4.30
2023-05-19T19:08:05.699Z,4.80
2023-05-19T19:10:35.082Z,5.10
2023-05-19T19:13:01.921Z,5.00
2023-05-19T19:15:28.687Z,4.70
2023-05-19T19:17:55.578Z,4.70
2023-05-19T19:20:22.365Z,5.10
2023-05-19T19:22:49.050Z,5.20
2023-05-19T19:25:15.757Z,4.60
2023-05-19T19:27:42.385Z,4.80
2023-05-19T19:30:09.702Z,4.80
2023-05-19T19:32:36.352Z,4.70
2023-05-19T19:35:03.140Z,4.50
2023-05-19T19:37:29.836Z,4.90
2023-05-19T19:39:56.455Z,4.80
2023-05-19T19:42:23.060Z,4.90
2023-05-19T19:44:49.648Z,4.80
2023-05-19T19:47:16.448Z,4.90
2023-05-19T19:49:43.119Z,4.80
2023-05-19T19:52:09.710Z,4.90
2023-05-19T19:54:36.293Z,4.60
2023-05-19T19:57:03.144Z,5.30
2023-05-19T19:59:30.559Z,4.80
2023-05-19T20:01:57.426Z,5.40
2023-05-19T20:04:24.193Z,5.50
2023-05-19T20:06:51.401Z,4.70
2023-05-19T20:09:18.135Z,4.70
2023-05-19T20:11:44.825Z,4.60
2023-05-19T20:14:11.492Z,5.20
2023-05-19T20:16:38.313Z,5.70
2023-05-19T20:19:06.708Z,4.60
2023-05-19T20:21:34.440Z,4.60
2023-05-19T20:24:01.031Z,4.40
2023-05-19T20:26:29.190Z,4.50
2023-05-19T20:28:56.263Z,4.30
2023-05-19T20:31:24.721Z,4.40
2023-05-19T20:33:51.965Z,3.80
2023-05-19T20:36:18.738Z,3.60
2023-05-19T20:38:45.517Z,4.00
2023-05-19T20:41:12.224Z,4.40
2023-05-19T20:43:38.832Z,3.80
2023-05-19T20:46:05.571Z,3.20
2023-05-19T20:48:32.346Z,4.20
2023-05-19T20:50:59.015Z,4.00
2023-05-19T20:53:25.650Z,3.70
2023-05-19T20:55:52.536Z,4.20
2023-05-19T20:58:19.170Z,4.10
2023-05-19T21:00:45.938Z,4.00
2023-05-19T21:03:12.641Z,3.80
2023-05-19T21:05:40.171Z,3.90
2023-05-19T21:08:12.581Z,4.20
2023-05-19T21:10:39.465Z,4.20
2023-05-19T21:13:06.121Z,4.00
2023-05-19T21:15:32.844Z,4.50
2023-05-19T21:17:59.601Z,4.20
2023-05-19T21:20:27.932Z,3.80
2023-05-19T21:22:56.526Z,4.00
2023-05-19T21:25:23.288Z,4.00
2023-05-19T21:27:51.421Z,3.70
2023-05-19T21:30:18.219Z,3.80
2023-05-19T21:32:44.854Z,3.50
2023-05-19T21:35:11.681Z,4.10
2023-05-19T21:37:38.295Z,3.50
2023-05-19T21:40:05.495Z,3.40
2023-05-19T21:42:32.079Z,3.70
2023-05-19T21:44:58.830Z,3.00
2023-05-19T21:47:25.610Z,3.30
2023-05-19T21:49:52.196Z,3.30
2023-05-19T21:52:22.035Z,2.80
2023-05-19T21:54:48.718Z,3.00
2023-05-19T21:57:15.429Z,2.90
2023-05-19T21:59:42.065Z,3.30
2023-05-19T22:02:08.891Z,3.00
2023-05-19T22:04:36.276Z,2.90
2023-05-19T22:07:02.976Z,4.10
2023-05-19T22:09:29.757Z,3.00
2023-05-19T22:11:56.415Z,2.70
2023-05-19T22:14:23.625Z,3.10
2023-05-19T22:16:50.440Z,3.00
2023-05-19T22:19:17.328Z,3.10
2023-05-19T22:21:44.012Z,2.60
2023-05-19T22:24:10.635Z,3.10
2023-05-19T22:26:37.991Z,2.70
2023-05-19T22:29:04.626Z,3.20
2023-05-19T22:31:31.246Z,2.90
2023-05-19T22:33:57.946Z,3.30
2023-05-19T22:36:24.650Z,3.30
2023-05-19T22:38:51.609Z,2.90
2023-05-19T22:41:18.252Z,3.30
2023-05-19T22:43:44.925Z,3.10
2023-05-19T22:46:11.550Z,2.90
2023-05-19T22:48:38.181Z,3.30
2023-05-19T22:51:04.855Z,3.40
2023-05-19T22:53:31.448Z,3.40
2023-05-19T22:55:58.037Z,3.50
2023-05-19T22:58:24.636Z,3.40
2023-05-19T23:00:51.251Z,3.40
2023-05-19T23:03:18.385Z,3.70
2023-05-19T23:05:45.095Z,3.50
2023-05-19T23:08:11.792Z,3.60
2023-05-19T23:10:38.528Z,3.70
2023-05-19T23:13:05.152Z,3.60
2023-05-19T23:15:31.852Z,3.60
2023-05-19T23:17:59.095Z,4.00
2023-05-19T23:20:25.889Z,3.20
2023-05-19T23:22:52.522Z,3.50
2023-05-19T23:25:19.188Z,3.50
2023-05-19T23:27:46.587Z,3.90
2023-05-19T23:30:13.399Z,3.30
2023-05-19T23:32:40.996Z,4.00
2023-05-19T23:35:17.050Z,4.20
2023-05-19T23:37:43.658Z,3.50
2023-05-19T23:40:11.744Z,3.60
2023-05-19T23:42:38.509Z,4.10
2023-05-19T23:45:06.181Z,4.20
2023-05-19T23:47:32.859Z,4.00
2023-05-19T23:49:59.532Z,3.70
2023-05-19T23:52:26.329Z,3.70
2023-05-19T23:54:52.941Z,3.60
2023-05-19T23:57:19.639Z,3.60
2023-05-19T23:59:46.235Z,4.00
